Time;durP1;ratioP1;P1;durP2;ratioP2;P2;SDS_P1;SDS_P2;PMS_P1;PMS_P2;Temp;Humidity;BMP_temperature;BMP_pressure;BME280_temperature;BME280_humidity;BME280_pressure;Samples;Min_cycle;Max_cycle;Signal;HPM_P1;HPM_P2
2023/03/29 03:39:04;;;;;;;14.70;7.80;;;;;;;25.16;17.42;100752.94;109439;1258;480195;-92
2023/03/29 03:58:37;;;;;;;15.50;9.90;;;;;;;24.91;16.80;100770.05;109412;1258;499391;-88
2023/03/29 04:01:03;;;;;;;13.40;8.00;;;;;;;24.87;16.51;100773.58;109612;1257;67520;-88
2023/03/29 04:03:30;;;;;;;12.80;7.40;;;;;;;24.84;16.32;100779.69;109645;1260;67113;-87
2023/03/29 04:05:58;;;;;;;11.40;6.10;;;;;;;24.79;16.16;100781.34;109564;1259;66911;-87
2023/03/29 04:08:24;;;;;;;11.00;6.10;;;;;;;24.75;16.12;100784.58;109634;1259;67443;-85
2023/03/29 04:10:51;;;;;;;10.20;5.50;;;;;;;24.71;15.97;100789.74;109633;1260;67655;-87
2023/03/29 04:13:17;;;;;;;8.40;5.00;;;;;;;24.68;15.84;100797.12;109535;1260;67569;-87
2023/03/29 04:15:44;;;;;;;7.80;4.90;;;;;;;24.64;15.71;100810.29;109559;1259;67526;-87
2023/03/29 04:18:10;;;;;;;9.40;4.60;;;;;;;24.60;15.73;100815.67;109583;1258;78595;-88
2023/03/29 04:20:36;;;;;;;7.40;5.00;;;;;;;24.57;15.84;100819.71;109659;1259;67580;-88
2023/03/29 04:25:45;;;;;;;8.20;4.30;;;;;;;24.53;15.63;100822.84;109463;1262;67573;-89
2023/03/29 04:28:11;;;;;;;13.00;4.60;;;;;;;24.51;15.61;100817.55;109750;1257;67759;-89
2023/03/29 04:30:37;;;;;;;10.50;4.60;;;;;;;24.50;15.75;100824.36;109619;1257;68134;-87
2023/03/29 04:33:02;;;;;;;10.60;5.00;;;;;;;24.50;15.67;100827.05;109525;1257;67232;-87
2023/03/29 04:35:46;;;;;;;8.80;5.00;;;;;;;24.51;15.92;100829.40;109735;1257;67476;-90
2023/03/29 04:38:21;;;;;;;12.00;5.50;;;;;;;24.51;15.72;100836.48;109707;1257;74188;31
2023/03/29 04:40:53;;;;;;;12.80;5.90;;;;;;;24.51;15.73;100838.91;109599;1258;69184;-88
2023/03/29 04:45:57;;;;;;;11.40;5.60;;;;;;;24.51;15.85;100841.48;109682;1257;66973;-86
2023/03/29 04:48:23;;;;;;;15.80;5.50;;;;;;;24.52;16.07;100841.62;109588;1257;67934;-84
2023/03/29 04:50:49;;;;;;;12.90;5.20;;;;;;;24.55;16.24;100846.16;109673;1257;67183;-86
2023/03/29 04:53:15;;;;;;;15.90;5.30;;;;;;;24.58;16.47;100845.98;109655;1257;67507;-87
2023/03/29 04:55:40;;;;;;;9.70;4.90;;;;;;;24.62;16.81;100846.73;109647;1258;67628;-85
2023/03/29 04:58:09;;;;;;;10.00;4.80;;;;;;;24.65;16.91;100849.48;109729;1257;67607;-89
2023/03/29 05:00:36;;;;;;;11.30;5.30;;;;;;;24.68;16.98;100853.00;109674;1257;73134;-90
2023/03/29 05:06:05;;;;;;;17.60;5.00;;;;;;;24.70;16.95;100871.09;109754;1257;67675;-87
2023/03/29 05:08:33;;;;;;;12.00;5.20;;;;;;;24.72;16.90;100874.09;109609;1259;67051;-89
2023/03/29 05:13:25;;;;;;;10.20;4.70;;;;;;;24.75;17.27;100873.70;109690;1257;67711;-87
2023/03/29 05:15:53;;;;;;;9.40;5.10;;;;;;;24.78;17.21;100879.80;109630;1258;67186;-89
2023/03/29 05:18:19;;;;;;;9.30;4.90;;;;;;;24.79;17.15;100875.58;109565;1259;67731;-87
2023/03/29 05:20:46;;;;;;;9.10;4.80;;;;;;;24.80;17.45;100878.65;109546;1260;67556;-90
2023/03/29 05:23:12;;;;;;;11.40;4.80;;;;;;;24.81;17.39;100875.24;109421;1259;68119;-88
2023/03/29 05:25:37;;;;;;;9.60;4.70;;;;;;;24.82;17.28;100875.17;109357;1258;67729;-89
2023/03/29 05:28:03;;;;;;;10.30;4.70;;;;;;;24.82;17.24;100875.44;109506;1259;67747;-83
2023/03/29 05:30:29;;;;;;;11.00;4.70;;;;;;;24.83;17.46;100878.67;109479;1259;67528;-84
2023/03/29 05:32:54;;;;;;;11.00;4.70;;;;;;;24.84;17.30;100884.16;109526;1259;68083;-89
2023/03/29 05:38:12;;;;;;;9.30;4.20;;;;;;;24.87;17.64;100886.92;109623;1257;67267;-87
2023/03/29 05:40:38;;;;;;;8.70;4.40;;;;;;;24.91;17.95;100885.95;109637;1257;66978;-89
2023/03/29 05:43:06;;;;;;;6.40;4.30;;;;;;;24.94;17.92;100890.76;109735;1257;67417;-90
2023/03/29 05:45:32;;;;;;;8.20;4.40;;;;;;;24.98;18.13;100887.74;109531;1257;67735;-87
2023/03/29 05:50:41;;;;;;;14.50;5.80;;;;;;;25.07;18.16;100891.09;109666;1260;65433;-86
2023/03/29 05:53:06;;;;;;;12.60;5.40;;;;;;;25.12;18.30;100898.55;109596;1257;67570;-86
2023/03/29 05:55:32;;;;;;;8.30;5.20;;;;;;;25.15;18.25;100898.48;109516;1257;67601;-85
2023/03/29 05:57:57;;;;;;;9.70;4.90;;;;;;;25.18;18.08;100898.02;109569;1258;67466;-86
2023/03/29 06:00:24;;;;;;;15.70;6.10;;;;;;;25.22;18.24;100904.11;109648;1257;68067;-87
2023/03/29 06:02:52;;;;;;;15.50;9.70;;;;;;;25.24;18.21;100904.77;109616;1257;67752;-86
2023/03/29 06:05:21;;;;;;;12.50;7.40;;;;;;;25.27;18.11;100904.48;109450;1258;67020;-87
2023/03/29 06:07:56;;;;;;;11.70;7.50;;;;;;;25.30;18.29;100904.85;109654;1257;67754;-91
2023/03/29 06:10:25;;;;;;;13.30;7.50;;;;;;;25.33;18.11;100906.92;109632;1257;67238;-88
2023/03/29 06:12:51;;;;;;;10.50;6.80;;;;;;;25.34;18.12;100909.80;109499;1257;74409;-89
2023/03/29 06:15:17;;;;;;;14.70;7.30;;;;;;;25.35;18.11;100908.75;109561;1258;67631;-88
2023/03/29 06:17:48;;;;;;;13.90;7.90;;;;;;;25.35;17.99;100908.02;109406;1259;67745;-86
2023/03/29 06:20:15;;;;;;;10.40;6.90;;;;;;;25.34;18.00;100914.65;109335;1260;67605;-85
2023/03/29 06:25:19;;;;;;;12.50;7.80;;;;;;;25.29;17.70;100913.30;109646;1259;74246;-88
2023/03/29 06:27:49;;;;;;;13.10;7.20;;;;;;;25.26;17.39;100917.88;109363;1259;67836;-87
2023/03/29 06:30:15;;;;;;;9.70;7.10;;;;;;;25.23;17.40;100920.48;109277;1260;67774;-86
2023/03/29 06:32:44;;;;;;;8.70;6.20;;;;;;;25.21;17.27;100921.68;109503;1259;67847;-88
2023/03/29 06:35:09;;;;;;;9.60;5.80;;;;;;;25.19;17.17;100921.95;109421;1259;67339;-86
2023/03/29 06:40:17;;;;;;;12.40;8.30;;;;;;;25.21;16.96;100927.09;109361;1262;67693;-86
2023/03/29 06:42:44;;;;;;;10.10;7.80;;;;;;;25.23;16.86;100925.94;109369;1261;67766;-87
2023/03/29 06:45:20;;;;;;;10.00;7.40;;;;;;;25.26;16.75;100924.22;109161;1262;68003;-90
2023/03/29 06:47:49;;;;;;;10.10;6.80;;;;;;;25.28;16.87;100926.04;109435;1259;67162;-87
2023/03/29 06:50:16;;;;;;;8.90;6.70;;;;;;;25.29;16.87;100926.73;109476;1258;83953;-86
2023/03/29 06:53:06;;;;;;;8.20;6.40;;;;;;;25.31;16.86;100931.09;109630;1258;67571;-92
2023/03/29 06:55:44;;;;;;;;;;;;;;;25.31;16.69;100935.63;109618;1257;67627;-88
2023/03/29 06:58:12;;;;;;;10.90;6.60;;;;;;;25.30;16.77;100937.23;109544;1258;67713;-85
2023/03/29 07:00:38;;;;;;;8.80;6.80;;;;;;;25.33;16.85;100939.23;109533;1257;67186;-86
2023/03/29 07:03:09;;;;;;;11.30;6.60;;;;;;;25.35;16.86;100938.42;109362;1257;67787;-88
2023/03/29 07:05:43;;;;;;;14.50;7.30;;;;;;;25.34;16.68;100934.52;109572;1258;67719;-88
2023/03/29 07:08:14;;;;;;;9.90;7.00;;;;;;;25.34;16.86;100937.25;109632;1258;67704;-87
2023/03/29 07:10:42;;;;;;;9.70;6.40;;;;;;;25.32;16.67;100939.38;109591;1258;67515;-91
2023/03/29 07:13:11;;;;;;;11.00;6.40;;;;;;;25.28;16.70;100943.40;109684;1257;67182;-86
2023/03/29 07:15:40;;;;;;;10.10;5.40;;;;;;;25.21;16.82;100941.70;109426;1257;75288;-87
2023/03/29 07:18:09;;;;;;;12.10;5.50;;;;;;;25.16;16.80;100942.53;109444;1257;67618;-86
2023/03/29 07:20:37;;;;;;;19.10;13.50;;;;;;;25.13;16.79;100947.05;109455;1259;67495;-86
2023/03/29 07:23:03;;;;;;;16.40;14.10;;;;;;;25.11;16.81;100945.68;109544;1259;67470;-87
2023/03/29 07:25:51;;;;;;;15.40;13.40;;;;;;;25.10;16.68;100947.13;109608;1260;67601;-91
2023/03/29 07:28:17;;;;;;;17.30;11.80;;;;;;;25.10;16.64;100947.59;109557;1259;74277;-86
2023/03/29 07:30:42;;;;;;;13.10;9.60;;;;;;;25.11;16.75;100949.33;109507;1260;67837;-87
2023/03/29 07:33:08;;;;;;;14.60;9.10;;;;;;;25.12;16.52;100945.47;109633;1259;67552;-87
2023/03/29 07:35:33;;;;;;;10.90;8.60;;;;;;;25.14;16.49;100942.77;109745;1260;67502;-85
2023/03/29 07:37:59;;;;;;;10.20;7.50;;;;;;;25.18;16.44;100938.91;109706;1260;67961;-84
2023/03/29 07:40:42;;;;;;;9.50;7.00;;;;;;;25.21;16.73;100939.95;109447;1259;67565;-90
2023/03/29 07:43:09;;;;;;;12.70;6.70;;;;;;;25.24;16.75;100941.23;109426;1259;67066;-85
2023/03/29 07:45:35;;;;;;;8.70;5.70;;;;;;;25.27;16.85;100943.05;109551;1259;67945;-85
2023/03/29 07:48:01;;;;;;;8.90;5.30;;;;;;;25.27;16.57;100941.03;109457;1259;67567;-87
2023/03/29 07:50:26;;;;;;;10.40;5.70;;;;;;;25.26;16.59;100939.52;109482;1258;67253;-88
2023/03/29 07:52:52;;;;;;;10.30;6.50;;;;;;;25.24;16.51;100940.52;109519;1259;67615;-87
2023/03/29 07:57:54;;;;;;;8.70;5.90;;;;;;;25.16;16.54;100947.22;109572;1259;67574;-86
2023/03/29 08:00:20;;;;;;;15.70;8.20;;;;;;;25.11;16.54;100942.23;109536;1259;67848;-84
2023/03/29 08:02:48;;;;;;;15.30;7.20;;;;;;;25.07;16.46;100947.41;109347;1260;67977;-86
2023/03/29 08:05:14;;;;;;;10.30;6.90;;;;;;;25.04;16.50;100946.11;109383;1259;67741;-86
2023/03/29 08:07:40;;;;;;;8.20;6.40;;;;;;;25.00;16.50;100946.52;109667;1258;67621;-87
2023/03/29 08:12:56;;;;;;;13.40;7.90;;;;;;;24.97;16.39;100946.79;109406;1262;66901;-86
2023/03/29 08:15:22;;;;;;;22.40;9.70;;;;;;;24.98;16.42;100944.05;109313;1261;74140;-87
2023/03/29 08:17:47;;;;;;;33.70;10.50;;;;;;;24.98;16.25;100942.61;109109;1261;67278;-87
2023/03/29 08:20:15;;;;;;;36.00;9.60;;;;;;;24.99;16.34;100947.39;109334;1262;68192;-88
2023/03/29 08:22:40;;;;;;;44.60;8.90;;;;;;;24.99;16.16;100948.52;109326;1260;67914;-86
2023/03/29 08:25:10;;;;;;;28.90;8.10;;;;;;;25.00;16.25;100943.77;109275;1261;67543;-87
2023/03/29 08:27:52;;;;;;;28.20;8.10;;;;;;;25.01;16.26;100939.23;109468;1260;75037;-87
2023/03/29 08:30:18;;;;;;;26.50;7.80;;;;;;;25.03;16.22;100934.98;109372;1261;67409;-87
2023/03/29 08:32:43;;;;;;;25.60;6.80;;;;;;;25.04;16.29;100926.40;109202;1261;67581;-85
2023/03/29 08:35:09;;;;;;;20.40;5.90;;;;;;;25.04;16.13;100927.27;109276;1260;67599;-86
2023/03/29 08:37:35;;;;;;;18.30;6.10;;;;;;;25.03;16.10;100925.73;109407;1261;67432;-87
2023/03/29 08:40:01;;;;;;;16.40;5.30;;;;;;;25.02;15.88;100919.52;109187;1263;67599;-86
2023/03/29 08:42:53;;;;;;;14.80;4.80;;;;;;;25.01;16.08;100917.26;109379;1261;67587;-86
2023/03/29 08:45:28;;;;;;;11.10;4.50;;;;;;;24.99;15.93;100922.98;109138;1261;67527;-85
2023/03/29 08:48:10;;;;;;;12.90;4.30;;;;;;;25.00;16.05;100924.05;109231;1261;67934;-86
2023/03/29 08:50:39;;;;;;;13.70;4.10;;;;;;;25.00;16.03;100926.90;109176;1263;74389;-85
2023/03/29 08:53:07;;;;;;;12.60;4.30;;;;;;;25.00;16.17;100926.64;109147;1261;67083;-85
2023/03/29 08:55:40;;;;;;;7.30;3.70;;;;;;;25.00;16.13;100933.75;109098;1260;67959;-82
2023/03/29 09:00:42;;;;;;;13.30;4.60;;;;;;;25.00;16.00;100935.59;109487;1257;67342;-84
2023/03/29 09:03:23;;;;;;;9.40;4.70;;;;;;;25.00;16.04;100935.54;109530;1257;74252;-85
2023/03/29 09:05:52;;;;;;;8.30;4.60;;;;;;;24.99;16.04;100938.12;109411;1257;67605;-85
2023/03/29 09:11:46;;;;;;;11.20;3.40;;;;;;;24.95;16.00;100955.39;109741;1260;66858;-88
2023/03/29 09:14:25;;;;;;;6.40;3.80;;;;;;;24.92;15.91;100952.39;109751;1258;66918;-85
2023/03/29 09:17:22;;;;;;;5.70;3.20;;;;;;;24.90;15.85;100968.88;109428;1260;74235;-83
2023/03/29 09:20:02;;;;;;;5.80;3.20;;;;;;;24.89;15.83;100980.27;109562;1262;67680;-85
2023/03/29 09:22:31;;;;;;;5.60;3.10;;;;;;;24.89;15.80;100980.17;109359;1260;67555;-88
2023/03/29 09:25:20;;;;;;;7.20;3.40;;;;;;;24.90;15.84;100970.53;109465;1260;67842;-85
2023/03/29 09:28:24;;;;;;;6.30;2.80;;;;;;;24.92;15.89;100963.51;109383;1260;67491;-85
2023/03/29 09:30:54;;;;;;;7.30;2.90;;;;;;;24.93;15.95;100972.36;109548;1259;74904;-87
2023/03/29 09:33:46;;;;;;;5.20;2.70;;;;;;;24.96;15.79;100966.40;109364;1261;67259;-85
2023/03/29 09:36:36;;;;;;;5.40;2.40;;;;;;;24.97;15.99;100967.42;109384;1264;67958;-86
2023/03/29 09:39:02;;;;;;;8.10;2.30;;;;;;;24.99;15.93;100965.92;109213;1260;67491;-87
2023/03/29 09:41:31;;;;;;;5.30;2.30;;;;;;;25.00;15.80;100967.77;109438;1259;67863;-86
2023/03/29 09:43:57;;;;;;;2.90;2.30;;;;;;;25.03;15.80;100967.50;109403;1260;74139;-85
2023/03/29 09:46:45;;;;;;;4.50;2.00;;;;;;;25.04;15.69;100963.45;109326;1261;67704;-84
2023/03/29 09:49:15;;;;;;;7.20;2.30;;;;;;;25.05;15.63;100971.61;109304;1260;68003;-84
2023/03/29 09:51:41;;;;;;;5.90;2.10;;;;;;;25.08;15.84;100971.71;109283;1262;67949;-84
2023/03/29 09:54:09;;;;;;;7.20;2.30;;;;;;;25.09;15.87;100972.33;109434;1261;67750;-84
2023/03/29 09:56:35;;;;;;;4.30;2.20;;;;;;;25.11;15.66;100970.28;109358;1264;73877;-83
2023/03/29 09:59:00;;;;;;;4.80;2.10;;;;;;;25.12;15.71;100973.69;109450;1260;67860;-83
2023/03/29 10:01:34;;;;;;;10.30;2.60;;;;;;;25.15;15.68;100974.79;109486;1260;67653;-84
2023/03/29 10:03:59;;;;;;;5.40;2.10;;;;;;;25.14;15.72;100979.89;109438;1260;67671;-85
2023/03/29 10:06:25;;;;;;;5.10;2.10;;;;;;;25.12;15.68;100977.45;109530;1260;67526;-84
2023/03/29 10:08:56;;;;;;;5.20;2.10;;;;;;;25.12;15.58;100975.33;109509;1259;67685;-85
2023/03/29 10:11:29;;;;;;;7.30;2.10;;;;;;;25.12;15.47;100982.23;109412;1260;67549;-86
2023/03/29 10:14:02;;;;;;;3.90;2.10;;;;;;;25.12;15.47;100985.16;109493;1261;67588;-87
2023/03/29 10:16:32;;;;;;;5.80;2.30;;;;;;;25.10;15.46;100987.96;109542;1261;66964;-85
2023/03/29 10:18:58;;;;;;;6.00;2.30;;;;;;;25.09;15.41;100993.06;109569;1260;66802;-86
2023/03/29 10:21:24;;;;;;;7.40;2.20;;;;;;;25.09;15.45;100998.27;109537;1260;67650;-87
2023/03/29 10:23:57;;;;;;;4.00;2.10;;;;;;;25.08;15.63;100990.29;109413;1260;67698;-87
2023/03/29 10:26:26;;;;;;;4.10;2.10;;;;;;;25.07;15.62;100997.81;109317;1264;67753;-86
2023/03/29 10:28:56;;;;;;;4.50;2.10;;;;;;;25.06;15.66;101002.45;109408;1260;67633;-86
2023/03/29 10:31:21;;;;;;;6.70;2.30;;;;;;;25.05;15.45;101002.92;109596;1261;67559;-87
2023/03/29 10:34:03;;;;;;;5.40;2.20;;;;;;;25.06;15.56;101009.20;109424;1259;67693;-90
2023/03/29 10:36:29;;;;;;;5.10;2.00;;;;;;;25.06;15.47;101013.57;109404;1260;67559;-86
2023/03/29 10:38:56;;;;;;;6.00;2.00;;;;;;;25.06;15.67;101024.49;109438;1261;68008;-86
2023/03/29 10:41:22;;;;;;;3.90;2.10;;;;;;;25.07;15.62;101033.09;109481;1259;67071;-85
2023/03/29 10:43:49;;;;;;;8.00;2.10;;;;;;;25.08;15.77;101040.08;109584;1260;67627;-85
2023/03/29 10:46:26;;;;;;;4.90;2.00;;;;;;;25.08;15.67;101038.80;109519;1260;67965;-86
2023/03/29 10:48:59;;;;;;;4.20;2.10;;;;;;;25.07;15.77;101033.81;109467;1260;67582;-91
2023/03/29 10:51:28;;;;;;;6.20;2.10;;;;;;;25.06;15.84;101027.17;109427;1260;68018;-86
2023/03/29 10:53:56;;;;;;;3.40;1.90;;;;;;;25.06;16.07;101015.59;109336;1259;66985;-86
2023/03/29 10:56:28;;;;;;;2.60;1.90;;;;;;;25.08;16.04;101016.45;109502;1261;67429;-85
2023/03/29 10:59:18;;;;;;;5.00;2.30;;;;;;;25.09;16.23;101016.34;109536;1260;83566;-85
2023/03/29 11:01:56;;;;;;;3.90;2.20;;;;;;;25.10;16.19;101004.75;109565;1260;67695;-86
2023/03/29 11:04:28;;;;;;;4.70;2.30;;;;;;;25.11;16.33;100999.02;109386;1260;67918;-86
2023/03/29 11:07:02;;;;;;;3.60;1.90;;;;;;;25.13;16.53;100999.21;109643;1260;67462;-86
2023/03/29 11:10:06;;;;;;;3.90;2.00;;;;;;;25.14;16.42;100997.61;109507;1260;67704;-86
2023/03/29 11:12:47;;;;;;;3.50;1.80;;;;;;;25.12;16.52;100993.77;109546;1260;74229;-85
2023/03/29 11:15:59;;;;;;;4.60;1.90;;;;;;;25.11;16.09;100992.80;109593;1260;67665;-86
2023/03/29 11:18:50;;;;;;;3.20;2.00;;;;;;;25.09;16.04;100992.29;109495;1259;67008;-86
2023/03/29 11:24:11;;;;;;;2.10;1.90;;;;;;;25.07;15.86;100993.29;109756;1258;67673;-86
2023/03/29 11:26:40;;;;;;;4.70;1.70;;;;;;;25.05;15.79;100992.68;109598;1259;74271;-86
2023/03/29 11:29:16;;;;;;;3.70;2.00;;;;;;;25.04;15.65;100989.41;109473;1259;274931;-86
2023/03/29 11:31:56;;;;;;;3.60;1.80;;;;;;;25.02;15.46;100984.23;109583;1260;67961;-85
2023/03/29 11:34:50;;;;;;;7.00;2.10;;;;;;;25.00;15.57;100980.08;109659;1259;67544;-87
2023/03/29 11:37:23;;;;;;;2.70;1.90;;;;;;;24.99;15.57;100975.35;109705;1259;67617;-86
2023/03/29 11:40:14;;;;;;;3.40;2.10;;;;;;;24.99;15.17;100971.59;109735;1263;74157;-84
2023/03/29 11:42:43;;;;;;;5.70;2.00;;;;;;;24.99;15.22;100971.64;109619;1261;67561;-91
2023/03/29 11:45:17;;;;;;;3.00;2.00;;;;;;;25.00;15.21;100973.59;109656;1259;67624;-88
2023/03/29 11:47:44;;;;;;;2.40;1.90;;;;;;;25.01;15.10;100972.50;109606;1260;66900;-87
2023/03/29 11:50:43;;;;;;;4.70;2.20;;;;;;;25.01;15.03;100976.67;109570;1260;66970;-87
2023/03/29 11:53:12;;;;;;;2.40;2.10;;;;;;;25.01;15.11;100979.09;109586;1259;73176;-87
2023/03/29 11:55:38;;;;;;;2.90;2.10;;;;;;;25.02;14.91;100975.77;109539;1260;66972;-87
2023/03/29 11:58:15;;;;;;;4.00;2.00;;;;;;;25.02;14.90;100975.17;109512;1258;67530;-87
2023/03/29 12:00:49;;;;;;;2.60;1.80;;;;;;;25.02;14.92;100971.61;109588;1260;67499;-88
2023/03/29 12:03:20;;;;;;;3.30;1.80;;;;;;;25.01;14.70;100964.15;109501;1259;67565;-87
2023/03/29 12:06:28;;;;;;;3.40;1.90;;;;;;;25.00;14.57;100960.56;109644;1260;74187;-86
2023/03/29 12:09:12;;;;;;;33.20;29.70;;;;;;;24.99;14.66;100959.65;109696;1259;67259;-87
2023/03/29 12:11:40;;;;;;;45.90;41.00;;;;;;;24.98;14.46;100962.11;109663;1260;66874;-87
2023/03/29 12:14:24;;;;;;;29.40;25.70;;;;;;;24.98;14.48;100966.39;109510;1259;67567;-87
2023/03/29 12:16:57;;;;;;;16.20;13.70;;;;;;;24.97;14.16;100966.66;109613;1260;67390;-87
2023/03/29 12:19:30;;;;;;;14.20;12.70;;;;;;;24.96;14.24;100973.36;109571;1260;74106;-87
2023/03/29 12:24:47;;;;;;;9.20;8.30;;;;;;;24.94;14.13;100963.19;109550;1257;67981;-87
2023/03/29 12:36:33;;;;;;;22.70;5.60;;;;;;;24.91;13.84;100973.92;109733;1258;65889;-87
2023/03/29 12:38:59;;;;;;;17.00;5.60;;;;;;;24.92;14.01;100978.13;109603;1259;67457;-87
2023/03/29 12:41:25;;;;;;;13.00;4.60;;;;;;;24.96;13.74;100978.30;109702;1260;67507;-87
2023/03/29 12:43:51;;;;;;;11.10;4.10;;;;;;;25.00;13.79;100973.64;109267;1260;67789;-87
2023/03/29 12:46:20;;;;;;;19.60;4.70;;;;;;;25.03;13.64;100974.02;109418;1260;67625;-87
2023/03/29 12:48:48;;;;;;;9.90;4.10;;;;;;;25.04;13.74;100976.84;109843;1257;67474;-88
2023/03/29 12:53:52;;;;;;;10.70;3.80;;;;;;;25.04;13.59;100981.83;109775;1261;67353;-88
2023/03/29 12:56:20;;;;;;;8.90;4.10;;;;;;;25.04;13.62;100982.10;109615;1259;66810;-87
2023/03/29 12:59:24;;;;;;;10.90;3.90;;;;;;;25.04;13.58;100983.17;109548;1260;73125;-88
2023/03/29 13:02:12;;;;;;;5.10;3.50;;;;;;;25.02;13.57;100979.64;109758;1260;66843;-87
2023/03/29 13:04:41;;;;;;;9.50;3.70;;;;;;;25.02;13.47;100975.69;109560;1259;67653;-87
2023/03/29 13:07:22;;;;;;;9.20;4.00;;;;;;;25.04;13.40;100969.62;109591;1259;67480;-87
2023/03/29 13:09:51;;;;;;;9.90;4.50;;;;;;;25.04;13.54;100967.26;109788;1259;67413;-87
2023/03/29 13:12:36;;;;;;;10.50;4.30;;;;;;;25.06;13.60;100969.00;109859;1258;75271;-91
2023/03/29 13:15:04;;;;;;;8.90;4.30;;;;;;;25.07;13.81;100969.91;109766;1257;67606;-86
2023/03/29 13:17:33;;;;;;;6.30;3.80;;;;;;;25.07;13.92;100970.52;109549;1258;67418;-87
2023/03/29 13:20:17;;;;;;;8.40;4.10;;;;;;;25.09;13.94;100968.91;109651;1257;67436;-86
2023/03/29 13:22:46;;;;;;;5.70;3.60;;;;;;;25.11;13.99;100971.12;109809;1260;67502;-87
2023/03/29 13:25:42;;;;;;;7.00;3.60;;;;;;;25.15;14.22;100974.88;109801;1257;74215;-86
2023/03/29 13:28:11;;;;;;;6.50;3.60;;;;;;;25.20;14.04;100973.45;109764;1259;67598;-86
2023/03/29 13:31:12;;;;;;;7.00;3.60;;;;;;;25.24;14.24;100974.45;109601;1260;66926;-87
2023/03/29 13:33:47;;;;;;;7.70;3.70;;;;;;;25.26;14.59;100974.38;109569;1260;66895;-86
2023/03/29 13:36:25;;;;;;;6.50;3.60;;;;;;;25.27;14.64;100974.06;109789;1261;66889;-91
2023/03/29 13:38:52;;;;;;;5.50;3.10;;;;;;;25.28;14.67;100973.63;109698;1261;74225;-87
2023/03/29 13:41:37;;;;;;;5.10;3.50;;;;;;;25.29;14.39;100972.48;109631;1259;67753;-87
2023/03/29 13:44:03;;;;;;;6.80;3.20;;;;;;;25.30;14.35;100973.66;109723;1257;67744;-87
2023/03/29 13:46:42;;;;;;;5.30;2.80;;;;;;;25.30;14.28;100977.71;109594;1259;67758;-87
2023/03/29 13:57:48;;;;;;;4.60;2.80;;;;;;;25.32;14.30;100981.73;109739;1257;67687;-87
2023/03/29 14:00:19;;;;;;;5.30;2.60;;;;;;;25.33;14.22;100982.02;109665;1257;67493;-87
2023/03/29 14:02:50;;;;;;;5.40;2.50;;;;;;;25.34;14.08;100983.45;109644;1257;67506;-87
2023/03/29 14:05:25;;;;;;;5.40;2.40;;;;;;;25.35;14.14;100980.41;109632;1257;74378;-87
2023/03/29 14:07:52;;;;;;;3.70;2.50;;;;;;;25.35;14.00;100983.80;109763;1257;67494;-87
2023/03/29 14:10:33;;;;;;;5.20;2.10;;;;;;;25.35;13.91;100988.48;109614;1258;67645;-87
2023/03/29 14:13:00;;;;;;;3.20;2.20;;;;;;;25.35;14.08;100987.77;109718;1257;67664;-86
2023/03/29 14:18:09;;;;;;;2.30;2.00;;;;;;;25.37;14.10;100993.83;109356;1262;74428;-88
2023/03/29 14:20:42;;;;;;;3.80;2.00;;;;;;;25.38;13.89;100996.24;109310;1262;66900;-88
2023/03/29 14:28:28;;;;;;;2.80;1.90;;;;;;;25.40;13.84;100989.53;109824;1260;67460;-87
2023/03/29 14:30:54;;;;;;;5.10;2.10;;;;;;;25.41;14.00;100994.09;109675;1259;74138;-87
2023/03/29 14:36:32;;;;;;;2.00;1.80;;;;;;;25.42;13.82;100996.73;109747;1260;66875;-87
2023/03/29 14:39:16;;;;;;;3.60;2.00;;;;;;;25.42;13.81;100997.40;109767;1259;68202;-86
2023/03/29 14:41:46;;;;;;;;;;;;;;;25.41;13.69;100993.89;109714;1259;66747;-87
2023/03/29 14:44:11;;;;;;;2.70;2.10;;;;;;;25.37;13.72;100995.06;109629;1259;75090;-87
2023/03/29 14:46:37;;;;;;;4.90;1.90;;;;;;;25.38;13.73;100993.26;109517;1260;67064;-86
2023/03/29 14:49:08;;;;;;;4.20;2.10;;;;;;;25.38;13.62;100991.05;109680;1259;67747;-88
2023/03/29 14:51:39;;;;;;;2.60;2.10;;;;;;;25.38;13.56;100991.77;109688;1258;67492;-88
2023/03/29 14:56:41;;;;;;;3.70;2.10;;;;;;;25.39;13.43;100998.05;109747;1257;74404;-87
2023/03/29 15:01:44;;;;;;;2.00;1.80;;;;;;;25.39;13.33;101000.81;109678;1258;67727;-87
2023/03/29 15:04:09;;;;;;;2.50;2.00;;;;;;;25.40;13.32;101006.83;109615;1258;67256;-87
2023/03/29 15:06:43;;;;;;;3.10;2.00;;;;;;;25.40;13.08;101009.15;109605;1260;66974;-87
2023/03/29 15:09:14;;;;;;;2.10;1.90;;;;;;;25.40;13.30;101006.46;109553;1257;74249;-87
2023/03/29 15:11:40;;;;;;;4.60;1.70;;;;;;;25.40;13.17;101008.59;109608;1258;67263;-88
2023/03/29 15:14:10;;;;;;;1.90;1.70;;;;;;;25.40;13.08;101010.08;109738;1257;67691;-88
2023/03/29 15:16:40;;;;;;;2.50;1.80;;;;;;;25.40;13.09;101006.98;109609;1258;67621;-88
2023/03/29 15:21:55;;;;;;;4.00;1.90;;;;;;;25.39;13.20;101010.60;109680;1257;71493;-87
2023/03/29 15:24:27;;;;;;;2.50;2.10;;;;;;;25.39;13.10;101015.70;109791;1260;67456;-86
2023/03/29 15:36:01;;;;;;;2.40;1.90;;;;;;;25.38;13.01;101020.66;109706;1264;71479;-84
2023/03/29 15:38:26;;;;;;;2.80;2.20;;;;;;;25.38;12.98;101023.81;109955;1259;66902;-87
2023/03/29 15:40:52;;;;;;;2.30;1.90;;;;;;;25.40;12.96;101030.73;109776;1259;66880;-87
2023/03/29 15:43:37;;;;;;;2.70;2.00;;;;;;;25.39;13.05;101034.25;109693;1260;66865;-86
2023/03/29 15:57:38;;;;;;;2.70;2.10;;;;;;;25.37;13.09;101051.63;109787;1258;67570;-87
2023/03/29 16:00:12;;;;;;;3.30;1.90;;;;;;;25.39;13.25;101053.02;109659;1257;66847;-88
2023/03/29 16:05:05;;;;;;;2.10;1.90;;;;;;;25.39;13.12;101058.10;109727;1257;67628;-87
2023/03/29 16:07:30;;;;;;;3.80;2.20;;;;;;;25.39;13.08;101062.42;109648;1260;67579;-87
2023/03/29 16:09:59;;;;;;;4.20;2.20;;;;;;;25.39;13.23;101068.09;109589;1259;68366;-88
2023/03/29 16:15:17;;;;;;;3.00;2.10;;;;;;;25.37;13.11;101066.92;109651;1257;72397;-88
2023/03/29 16:17:47;;;;;;;3.00;2.20;;;;;;;25.37;13.18;101070.16;109601;1258;67696;31
2023/03/29 16:20:18;;;;;;;2.70;2.20;;;;;;;25.37;13.02;101073.42;109538;1260;67478;-87
2023/03/29 16:22:47;;;;;;;2.90;2.50;;;;;;;25.37;13.13;101077.95;109614;1263;67620;-88
2023/03/29 16:25:17;;;;;;;3.90;2.10;;;;;;;25.37;13.17;101078.56;109540;1259;66986;-88
2023/03/29 16:35:41;;;;;;;;;;;;;;;25.37;13.27;101089.39;109589;1260;67736;-86
2023/03/29 16:38:07;;;;;;;2.70;2.40;;;;;;;25.34;13.26;101092.18;109799;1259;67565;-87
2023/03/29 16:43:28;;;;;;;3.30;2.60;;;;;;;25.33;13.00;101106.62;109770;1257;68009;-88
2023/03/29 16:45:54;;;;;;;3.10;2.70;;;;;;;25.33;13.24;101110.73;109475;1261;66948;-88
2023/03/29 16:48:26;;;;;;;3.70;2.70;;;;;;;25.33;13.24;101114.25;109617;1260;67001;-88
2023/03/29 16:50:54;;;;;;;3.70;2.50;;;;;;;25.31;13.17;101116.67;109699;1257;66822;-88
2023/03/29 16:55:56;;;;;;;4.60;2.60;;;;;;;25.31;13.10;101125.27;109707;1257;67868;-88
2023/03/29 16:58:39;;;;;;;3.90;2.70;;;;;;;25.31;12.95;101128.58;109766;1257;66895;-87
2023/03/29 17:04:07;;;;;;;4.30;3.10;;;;;;;25.26;13.19;101131.66;109759;1258;67537;-88
2023/03/29 17:06:36;;;;;;;4.10;2.70;;;;;;;25.26;13.24;101134.30;109733;1259;74374;-88
2023/03/29 17:09:10;;;;;;;3.80;3.00;;;;;;;25.26;13.24;101138.98;109762;1257;66820;-88
2023/03/29 17:16:53;;;;;;;3.60;3.10;;;;;;;25.26;13.13;101153.14;109758;1257;66899;-87
2023/03/29 17:19:20;;;;;;;3.20;2.80;;;;;;;25.26;13.13;101159.98;109737;1257;74406;-87
2023/03/29 17:21:50;;;;;;;4.00;3.00;;;;;;;25.27;13.25;101159.46;109487;1260;66778;-87
2023/03/29 17:26:50;;;;;;;3.70;2.80;;;;;;;25.27;13.27;101168.78;109707;1257;66865;-87
2023/03/29 17:31:56;;;;;;;4.70;3.00;;;;;;;25.27;13.23;101173.02;109579;1264;74217;-87
2023/03/29 17:34:23;;;;;;;3.70;2.60;;;;;;;25.26;13.30;101176.25;109733;1257;67692;-87
2023/03/29 17:37:02;;;;;;;;;;;;;;;25.26;13.28;101180.70;109753;1257;66991;-87
2023/03/29 17:39:28;;;;;;;4.40;2.60;;;;;;;25.23;13.39;101180.81;109674;1258;67634;-87